Time;durP1;ratioP1;P1;durP2;ratioP2;P2;SDS_P1;SDS_P2;PMS_P1;PMS_P2;Temp;Humidity;BMP_temperature;BMP_pressure;BME280_temperature;BME280_humidity;BME280_pressure;Samples;Min_cycle;Max_cycle;Signal;HPM_P1;HPM_P2
2022/05/19 00:01:06;;;;;;;17.48;13.02;;;;;;;19.84;77.97;101748.69;5072475;28;20509;-36
2022/05/19 00:03:35;;;;;;;14.55;13.00;;;;;;;19.85;78.46;101755.81;5072080;28;20025;-36
2022/05/19 00:06:02;;;;;;;17.40;12.73;;;;;;;19.83;78.43;101746.22;5072997;28;20203;-35
2022/05/19 00:08:28;;;;;;;15.95;12.68;;;;;;;19.85;78.50;101744.84;5071980;28;20037;-36
2022/05/19 00:10:55;;;;;;;16.23;12.63;;;;;;;19.78;78.62;101728.66;5073051;28;20051;-35
2022/05/19 00:13:22;;;;;;;16.92;13.40;;;;;;;19.79;78.85;101730.28;5072020;28;20032;-36
2022/05/19 00:15:47;;;;;;;19.25;13.75;;;;;;;19.71;79.04;101717.09;5072751;28;20060;-35
2022/05/19 00:18:13;;;;;;;15.05;13.40;;;;;;;19.71;79.42;101725.31;5072433;28;20506;-35
2022/05/19 00:20:39;;;;;;;20.00;13.30;;;;;;;19.71;79.29;101719.81;5071998;28;20034;-36
2022/05/19 00:23:04;;;;;;;17.55;13.90;;;;;;;19.68;79.47;101725.88;5076120;28;20111;-36
2022/05/19 00:25:30;;;;;;;18.98;13.57;;;;;;;19.69;79.23;101721.22;5076410;28;20066;-36
2022/05/19 00:27:55;;;;;;;15.88;13.65;;;;;;;19.72;79.16;101713.28;5075619;28;20036;-36
2022/05/19 00:30:21;;;;;;;19.63;14.15;;;;;;;19.62;79.40;101702.28;5076173;28;20048;-35
2022/05/19 00:32:46;;;;;;;18.20;13.52;;;;;;;19.61;79.82;101711.56;5076050;28;20040;-35
2022/05/19 00:35:11;;;;;;;21.02;14.75;;;;;;;19.53;80.05;101703.88;5075785;28;20024;-35
2022/05/19 00:37:37;;;;;;;15.43;13.55;;;;;;;19.59;79.62;101702.78;5075375;28;20032;-35
2022/05/19 00:40:03;;;;;;;16.75;13.45;;;;;;;19.53;80.05;101704.69;5073863;28;20070;-35
2022/05/19 00:42:43;;;;;;;15.35;13.52;;;;;;;19.57;80.01;101704.97;5075624;28;20079;-35
2022/05/19 00:45:10;;;;;;;18.25;13.63;;;;;;;19.48;80.42;101696.44;5075841;28;20028;-35
2022/05/19 00:48:05;;;;;;;16.27;13.25;;;;;;;19.56;79.56;101704.13;5075482;28;20028;-35
2022/05/19 00:50:49;;;;;;;18.50;14.23;;;;;;;19.53;80.34;101701.13;5013644;28;20045;-35
2022/05/19 00:53:32;;;;;;;18.27;14.30;;;;;;;19.48;80.63;101703.84;5013895;28;20038;-35
2022/05/19 00:56:01;;;;;;;15.98;13.25;;;;;;;19.45;80.61;101690.66;4996576;28;20544;-35
2022/05/19 00:58:33;;;;;;;16.40;13.30;;;;;;;19.48;80.23;101696.44;5013457;28;20072;-35
2022/05/19 01:00:58;;;;;;;15.15;12.70;;;;;;;19.48;80.78;101690.13;5013709;28;20038;-35
2022/05/19 01:03:24;;;;;;;;;;;;;;;19.61;78.92;101689.63;5013605;28;20494;-36
2022/05/19 01:05:53;;;;;;;14.57;12.77;;;;;;;19.47;80.79;101683.81;5013687;28;19991;-35
2022/05/19 01:08:32;;;;;;;17.83;13.27;;;;;;;19.45;80.37;101686.00;5013124;28;20540;-35
2022/05/19 01:10:59;;;;;;;15.68;13.98;;;;;;;19.41;80.63;101676.66;5013033;28;20104;-35
2022/05/19 01:13:30;;;;;;;17.02;13.98;;;;;;;19.26;81.10;101666.47;5012829;28;20029;-35
2022/05/19 01:15:56;;;;;;;17.15;14.40;;;;;;;19.18;81.48;101663.41;5013320;28;20037;-35
2022/05/19 01:18:21;;;;;;;;;;;;;;;19.39;80.46;101665.16;5013311;28;20492;-35
2022/05/19 01:20:47;;;;;;;17.45;14.25;;;;;;;19.13;81.84;101645.06;5013016;28;20513;-35
2022/05/19 01:23:37;;;;;;;15.88;13.68;;;;;;;19.18;81.64;101655.19;5012813;28;20037;-35
2022/05/19 01:26:06;;;;;;;16.50;13.25;;;;;;;19.24;81.64;101648.66;5013188;28;20157;-36
2022/05/19 01:28:31;;;;;;;17.90;13.65;;;;;;;19.23;82.05;101642.34;5073227;28;20077;-35
2022/05/19 01:30:57;;;;;;;;;;;;;;;19.38;79.90;101646.22;5074349;28;20040;-35
2022/05/19 01:33:22;;;;;;;19.05;14.85;;;;;;;19.14;82.06;101626.69;5074248;28;19912;-35
2022/05/19 01:35:47;;;;;;;19.55;15.45;;;;;;;19.03;83.25;101634.88;5074837;28;20021;-35
2022/05/19 01:38:33;;;;;;;18.42;15.57;;;;;;;18.97;83.44;101626.88;5074653;28;20092;-38
2022/05/19 01:41:16;;;;;;;17.60;15.77;;;;;;;18.94;84.09;101627.44;5074892;28;20032;-36
2022/05/19 01:44:00;;;;;;;19.23;16.40;;;;;;;18.95;84.07;101620.88;5074938;28;20481;-37
2022/05/19 01:46:35;;;;;;;19.77;16.10;;;;;;;18.75;84.83;101600.50;5074719;28;20028;-36
2022/05/19 01:49:10;;;;;;;20.02;14.98;;;;;;;18.90;84.29;101634.53;5074462;28;20040;-35
2022/05/19 01:51:58;;;;;;;18.20;15.82;;;;;;;18.93;83.80;101629.31;5075101;28;20032;-35
2022/05/19 01:54:41;;;;;;;17.30;15.38;;;;;;;18.91;84.47;101634.28;5074565;28;20103;-35
2022/05/19 01:57:21;;;;;;;18.48;15.95;;;;;;;18.83;84.87;101628.47;5074677;28;20401;-36
2022/05/19 02:00:00;;;;;;;17.33;15.38;;;;;;;18.85;84.46;101626.31;5072507;28;20036;-35
2022/05/19 02:02:33;;;;;;;19.77;15.77;;;;;;;18.86;84.99;101625.19;5074385;28;20032;-35
2022/05/19 02:05:13;;;;;;;16.63;14.50;;;;;;;18.83;85.10;101612.84;5074033;28;20147;-35
2022/05/19 02:07:41;;;;;;;19.15;15.75;;;;;;;18.76;85.26;101612.28;5074076;28;20029;-35
2022/05/19 02:10:14;;;;;;;19.92;15.98;;;;;;;18.84;84.48;101611.78;5073617;28;20056;-35
2022/05/19 02:12:40;;;;;;;19.70;15.30;;;;;;;18.83;84.96;101610.09;5074738;28;20059;-35
2022/05/19 02:15:13;;;;;;;20.10;16.17;;;;;;;18.78;85.28;101610.91;5073574;28;20504;-35
2022/05/19 02:17:40;;;;;;;23.25;15.55;;;;;;;18.75;85.74;101619.69;5073563;28;20024;-35
2022/05/19 02:20:13;;;;;;;17.08;14.82;;;;;;;18.93;85.16;101620.28;5074319;28;20028;-35
2022/05/19 02:22:42;;;;;;;18.17;16.08;;;;;;;18.80;85.81;101612.59;5072207;28;20036;-35
2022/05/19 02:25:14;;;;;;;19.50;15.73;;;;;;;18.88;85.74;101612.88;5073694;28;20101;-35
2022/05/19 02:27:45;;;;;;;17.15;15.35;;;;;;;18.86;85.70;101622.47;5074253;28;20383;-36
2022/05/19 02:30:15;;;;;;;19.58;15.65;;;;;;;18.87;85.39;101618.63;5073383;28;20029;-36
2022/05/19 02:32:40;;;;;;;18.42;14.38;;;;;;;18.96;85.03;101625.25;5074256;28;20044;-35
2022/05/19 02:35:07;;;;;;;17.27;15.52;;;;;;;18.90;85.77;101618.09;5073257;28;20033;-35
2022/05/19 02:37:33;;;;;;;17.70;15.90;;;;;;;18.90;85.65;101620.84;5071504;28;20040;-35
2022/05/19 02:39:59;;;;;;;16.40;14.68;;;;;;;18.92;85.39;101619.47;5073346;28;20357;-35
2022/05/19 02:42:24;;;;;;;17.77;15.73;;;;;;;18.93;85.45;101620.28;5072123;28;20082;-35
2022/05/19 02:44:50;;;;;;;;;;;;;;;19.08;83.75;101625.00;5072634;28;20033;-35
2022/05/19 02:47:15;;;;;;;19.67;14.57;;;;;;;18.94;84.78;101624.69;5073551;28;19939;-35
2022/05/19 02:49:40;;;;;;;16.40;14.55;;;;;;;18.96;84.72;101628.00;5073447;28;20036;-35
2022/05/19 02:52:06;;;;;;;19.83;14.93;;;;;;;19.01;85.17;101641.72;5073201;28;20024;-35
2022/05/19 02:54:31;;;;;;;20.38;15.38;;;;;;;18.93;85.56;101642.22;5073619;28;20024;-35
2022/05/19 02:56:57;;;;;;;18.38;15.13;;;;;;;18.95;84.92;101637.31;5073693;28;20024;-35
2022/05/19 02:59:22;;;;;;;17.42;15.38;;;;;;;19.01;84.91;101644.44;5073122;28;20527;-35
2022/05/19 03:01:47;;;;;;;17.05;14.80;;;;;;;19.09;85.04;101665.88;5073098;28;20031;-35
2022/05/19 03:04:13;;;;;;;;;;;;;;;19.21;83.18;101737.72;5073417;28;20051;-35
2022/05/19 03:06:38;;;;;;;17.27;14.93;;;;;;;19.16;84.04;101764.31;5073277;28;19908;-35
2022/05/19 03:09:04;;;;;;;19.83;15.63;;;;;;;19.14;84.83;101774.72;5072644;28;20024;-35
2022/05/19 03:11:30;;;;;;;16.42;14.38;;;;;;;19.15;84.46;101760.75;5073170;28;20035;-35
2022/05/19 03:13:55;;;;;;;;;;;;;;;19.21;82.66;101795.31;5073329;28;20099;-35
2022/05/19 03:16:21;;;;;;;13.73;11.87;;;;;;;19.36;80.90;101797.31;5072823;28;19912;-35
2022/05/19 03:18:46;;;;;;;15.10;12.07;;;;;;;19.43;80.90;101775.97;5073126;28;20045;-35
2022/05/19 03:21:11;;;;;;;;;;;;;;;19.54;80.85;101776.81;5073909;28;20033;-35
2022/05/19 03:23:36;;;;;;;13.70;10.43;;;;;;;19.51;80.02;101766.38;5072718;28;19999;-35
2022/05/19 03:26:02;;;;;;;13.85;11.52;;;;;;;19.62;79.71;101787.31;5072820;28;20158;-35
2022/05/19 03:28:28;;;;;;;14.65;10.25;;;;;;;19.67;80.64;101779.13;5072741;28;20054;-35
2022/05/19 03:30:54;;;;;;;13.60;10.00;;;;;;;19.76;80.44;101788.47;5073008;28;20498;-35
2022/05/19 03:33:19;;;;;;;15.15;10.88;;;;;;;19.82;80.17;101783.81;5073043;28;20159;-35
2022/05/19 03:35:44;;;;;;;;;;;;;;;19.87;79.99;101789.31;5073384;28;20025;-35
2022/05/19 03:38:10;;;;;;;11.07;9.53;;;;;;;19.81;80.21;101773.91;5072906;28;20288;-35
2022/05/19 03:40:36;;;;;;;11.88;9.90;;;;;;;19.88;80.12;101790.16;5072620;28;20267;-35
2022/05/19 03:43:01;;;;;;;12.20;9.70;;;;;;;19.77;79.24;101768.16;5072803;28;20036;-36
2022/05/19 03:45:27;;;;;;;12.82;9.55;;;;;;;19.75;79.31;101767.59;5072888;28;20029;-35
2022/05/19 03:47:52;;;;;;;9.85;8.88;;;;;;;19.85;80.02;101791.50;5071931;28;20033;-35
2022/05/19 03:50:18;;;;;;;12.40;9.48;;;;;;;19.82;80.49;101783.81;5072612;28;20060;-36
2022/05/19 03:52:43;;;;;;;;;;;;;;;19.90;79.38;101786.03;5072571;28;20035;-36
2022/05/19 03:55:12;;;;;;;12.80;9.63;;;;;;;19.81;80.50;101787.63;5072675;28;19958;-36
2022/05/19 03:57:38;;;;;;;12.85;9.95;;;;;;;19.71;81.57;101793.91;5076696;28;20359;-36
2022/05/19 04:00:06;;;;;;;12.25;9.73;;;;;;;19.70;80.93;101803.25;5076350;28;20218;-36
2022/05/19 04:02:31;;;;;;;12.00;9.45;;;;;;;19.69;81.35;101765.94;5076734;28;20032;-36
2022/05/19 04:04:57;;;;;;;11.40;9.32;;;;;;;19.76;81.51;101785.72;5076595;28;20082;-36
2022/05/19 04:07:22;;;;;;;9.88;8.57;;;;;;;19.76;80.85;101796.72;5076457;28;20059;-36
2022/05/19 04:09:47;;;;;;;9.40;8.10;;;;;;;19.81;80.93;101798.63;5076248;28;20053;-36
2022/05/19 04:12:17;;;;;;;;;;;;;;;19.86;79.97;101804.13;5076595;28;20021;-36
2022/05/19 04:14:42;;;;;;;8.30;7.05;;;;;;;19.77;80.41;101809.34;5076071;28;20012;-36
2022/05/19 04:17:08;;;;;;;10.52;7.40;;;;;;;19.79;81.16;101818.09;5076135;28;20032;-36
2022/05/19 04:19:35;;;;;;;9.30;7.75;;;;;;;19.73;81.79;101810.97;5076351;28;20055;-36
2022/05/19 04:22:01;;;;;;;10.82;7.45;;;;;;;19.71;82.42;101804.91;5075938;28;20056;-36
2022/05/19 04:24:26;;;;;;;;;;;;;;;19.84;80.18;101803.56;5076061;28;20128;-36
2022/05/19 04:26:52;;;;;;;12.38;6.72;;;;;;;19.72;81.77;101812.06;5076664;28;19912;-36
2022/05/19 04:29:17;;;;;;;;;;;;;;;19.84;80.37;101800.84;5076636;28;20062;-36
2022/05/19 04:31:42;;;;;;;8.90;6.30;;;;;;;19.77;82.23;101797.53;5075862;28;19959;-36
2022/05/19 04:34:07;;;;;;;8.27;6.72;;;;;;;19.68;82.77;101801.88;5076062;28;20266;-36
2022/05/19 04:36:33;;;;;;;9.27;6.50;;;;;;;19.68;82.75;101805.44;5075466;28;20464;-36
2022/05/19 04:38:58;;;;;;;10.48;6.50;;;;;;;19.68;83.40;101805.44;5075393;28;20021;-35
2022/05/19 04:41:23;;;;;;;8.23;6.70;;;;;;;19.64;83.43;101804.34;5075635;28;20028;-35
2022/05/19 04:43:51;;;;;;;8.93;6.38;;;;;;;19.63;83.61;101794.47;5075824;28;20373;-35
2022/05/19 04:46:16;;;;;;;9.20;6.22;;;;;;;19.68;83.42;101794.47;5075970;28;20029;-35
2022/05/19 04:48:42;;;;;;;7.50;5.85;;;;;;;19.71;83.56;101799.41;5075534;28;20082;-36
2022/05/19 04:51:07;;;;;;;8.27;6.28;;;;;;;19.67;83.80;101797.50;5075419;28;20111;-36
2022/05/19 04:53:33;;;;;;;;;;;;;;;19.81;81.95;101798.63;5075016;28;20044;-36
2022/05/19 04:55:58;;;;;;;6.70;5.20;;;;;;;19.77;82.43;101795.59;5075684;28;19908;-36
2022/05/19 04:58:23;;;;;;;;;;;;;;;19.86;81.14;101789.56;5076308;28;20735;-36
2022/05/19 05:00:51;;;;;;;4.53;4.00;;;;;;;19.74;81.21;101781.59;5075189;28;19931;-36
2022/05/19 05:03:16;;;;;;;7.20;4.80;;;;;;;19.70;82.14;101783.22;5075322;28;20035;-36
2022/05/19 05:05:42;;;;;;;;;;;;;;;19.85;81.16;101790.66;5075791;28;20033;-36
2022/05/19 05:08:07;;;;;;;5.07;4.00;;;;;;;19.78;81.02;101791.75;5074747;28;19916;-36
2022/05/19 05:10:33;;;;;;;6.65;3.90;;;;;;;19.68;81.26;101789.00;5075845;28;20064;-36
2022/05/19 05:13:09;;;;;;;5.55;3.20;;;;;;;19.74;80.87;101779.66;5075191;28;20032;-36
2022/05/19 05:15:34;;;;;;;7.20;3.50;;;;;;;19.74;80.98;101782.41;5075009;28;20033;-36
2022/05/19 05:18:00;;;;;;;;;;;;;;;19.84;80.00;101794.53;5075759;28;20102;-36
2022/05/19 05:20:25;;;;;;;5.00;3.72;;;;;;;19.62;81.93;101786.47;5075450;28;19917;-36
2022/05/19 05:22:50;;;;;;;5.68;3.25;;;;;;;19.58;81.41;101782.63;5075144;28;20060;-36
2022/05/19 05:25:16;;;;;;;;;;;;;;;19.71;80.67;101782.13;5075662;28;20024;-36
2022/05/19 05:27:43;;;;;;;5.45;2.92;;;;;;;19.61;81.38;101788.41;5074830;28;20249;-36
2022/05/19 05:30:09;;;;;;;5.97;2.80;;;;;;;19.57;82.59;101765.34;5074791;28;20391;-36
2022/05/19 05:32:35;;;;;;;5.45;3.10;;;;;;;19.49;84.56;101760.34;5074761;28;20044;-36
2022/05/19 05:35:00;;;;;;;;;;;;;;;19.42;85.97;101715.88;5075285;28;20032;-36
2022/05/19 05:37:26;;;;;;;10.25;3.83;;;;;;;19.13;89.81;101708.13;5075029;28;19919;-36
2022/05/19 05:39:51;;;;;;;9.13;4.07;;;;;;;18.96;91.89;101697.31;5074943;28;20086;-36
2022/05/19 05:42:16;;;;;;;;;;;;;;;19.14;87.36;101696.03;5075982;28;20056;-36
2022/05/19 05:44:42;;;;;;;7.28;3.80;;;;;;;18.98;92.83;101683.34;5074455;28;20368;-36
2022/05/19 05:47:07;;;;;;;7.72;3.72;;;;;;;18.87;93.25;101638.63;5074767;28;20032;-36
2022/05/19 05:49:32;;;;;;;;;;;;;;;19.03;90.51;101623.06;5075618;28;20105;-36
2022/05/19 05:51:58;;;;;;;7.17;4.00;;;;;;;18.80;94.15;101632.59;5074619;28;19959;-36
2022/05/19 05:54:23;;;;;;;;;;;;;;;18.94;89.77;101652.94;5074765;28;20267;-36
2022/05/19 05:56:49;;;;;;;6.15;3.30;;;;;;;18.89;94.10;101685.78;5075070;28;19999;-36
2022/05/19 05:59:14;;;;;;;6.03;3.85;;;;;;;18.81;95.64;101686.28;5074387;28;20028;-36
2022/05/19 06:01:39;;;;;;;6.93;4.32;;;;;;;18.67;95.12;101661.25;5074542;28;20024;-36
2022/05/19 06:04:05;;;;;;;;;;;;;;;18.85;92.76;101675.63;5074595;28;20025;-36
2022/05/19 06:06:30;;;;;;;6.55;3.80;;;;;;;18.83;96.65;101672.31;5074711;28;20003;-36
2022/05/19 06:08:55;;;;;;;;;;;;;;;18.96;92.09;101663.63;5074663;28;20024;-36
2022/05/19 06:11:21;;;;;;;6.80;4.00;;;;;;;18.91;96.86;101655.38;5074361;28;19925;-36
2022/05/19 06:13:47;;;;;;;;;;;;;;;19.06;92.05;101657.34;5074602;28;20279;-36
2022/05/19 06:16:12;;;;;;;5.88;4.10;;;;;;;19.01;94.71;101669.13;5074261;28;20252;-36
2022/05/19 06:18:37;;;;;;;;;;;;;;;19.12;91.93;101661.75;5074627;28;20055;-35
2022/05/19 06:21:04;;;;;;;7.43;4.63;;;;;;;19.11;94.57;101668.34;5074578;28;19919;-35
2022/05/19 06:23:30;;;;;;;8.05;4.75;;;;;;;19.15;93.40;101683.16;5073813;28;20477;-35
2022/05/19 06:25:56;;;;;;;7.70;4.93;;;;;;;19.21;94.17;101690.31;5074562;28;20059;-35
2022/05/19 06:28:21;;;;;;;;;;;;;;;19.34;91.56;101697.22;5074221;28;20036;-35
2022/05/19 06:30:47;;;;;;;7.13;5.10;;;;;;;19.32;93.18;101691.16;5074334;28;19913;-35
2022/05/19 06:33:16;;;;;;;6.90;5.18;;;;;;;19.45;94.16;101687.91;5073950;28;20028;-35
2022/05/19 06:35:41;;;;;;;7.38;4.93;;;;;;;19.34;93.95;101684.31;5074356;28;20020;-35
2022/05/19 06:38:07;;;;;;;10.30;6.00;;;;;;;19.46;93.42;101689.56;5074238;28;20318;-35
2022/05/19 06:40:34;;;;;;;7.10;5.50;;;;;;;19.50;93.93;101677.78;5074318;28;20043;-35
2022/05/19 06:42:59;;;;;;;6.38;5.68;;;;;;;19.63;93.50;101687.47;5073386;28;20028;-35
2022/05/19 06:45:27;;;;;;;8.75;5.75;;;;;;;19.71;93.50;101678.66;5073402;28;20115;-35
2022/05/19 06:47:52;;;;;;;10.95;5.97;;;;;;;19.72;92.80;101677.59;5073391;28;20024;-35
2022/05/19 06:50:18;;;;;;;;;;;;;;;19.93;90.88;101683.09;5074573;28;20459;-35
2022/05/19 06:52:50;;;;;;;8.30;5.65;;;;;;;19.86;91.86;101675.13;5073268;28;19915;-35
2022/05/19 06:55:18;;;;;;;6.53;5.65;;;;;;;19.84;92.66;101669.09;5073811;28;20028;-35
2022/05/19 06:57:44;;;;;;;8.02;5.32;;;;;;;19.82;93.32;101674.03;5073511;28;20109;-35
2022/05/19 07:00:10;;;;;;;;;;;;;;;19.97;90.89;101668.56;5073342;28;20028;-35
2022/05/19 07:02:36;;;;;;;7.87;5.20;;;;;;;19.82;91.32;101652.09;5073691;28;19915;-35
2022/05/19 07:05:02;;;;;;;10.18;6.43;;;;;;;19.72;90.60;101658.38;5073646;28;20731;-35
2022/05/19 07:07:28;;;;;;;7.38;6.25;;;;;;;19.83;92.16;101666.63;5072872;28;20043;-35
2022/05/19 07:09:53;;;;;;;;;;;;;;;19.95;90.69;101673.47;5073496;28;20028;-35
2022/05/19 07:12:23;;;;;;;7.40;6.40;;;;;;;19.80;93.56;101654.25;5072810;28;19908;-35
2022/05/19 07:14:52;;;;;;;6.47;5.88;;;;;;;19.80;93.61;101652.34;5072944;28;20305;-35
2022/05/19 07:17:18;;;;;;;7.55;6.15;;;;;;;19.93;92.34;101659.22;5073309;28;20032;-35
2022/05/19 07:22:29;;;;;;;8.13;6.47;;;;;;;19.91;91.57;101642.22;5073201;28;20507;-35
2022/05/19 07:24:54;;;;;;;9.43;6.78;;;;;;;19.90;93.28;101648.78;5073331;28;20044;-35
2022/05/19 07:27:20;;;;;;;8.50;6.30;;;;;;;19.94;90.12;101636.16;5072786;28;20496;-35
2022/05/19 07:29:46;;;;;;;7.32;5.00;;;;;;;19.87;90.66;101623.81;5072563;28;20028;-35
2022/05/19 07:32:11;;;;;;;10.93;6.30;;;;;;;19.91;89.94;101647.72;5073171;28;20074;-35
2022/05/19 07:34:38;;;;;;;12.30;6.20;;;;;;;19.92;90.22;101630.13;5072796;28;20067;-35
2022/05/19 07:37:04;;;;;;;8.77;6.13;;;;;;;20.06;90.20;101639.47;5073173;28;20052;-35
2022/05/19 07:39:30;;;;;;;9.93;6.45;;;;;;;19.94;86.89;101621.63;5072644;28;20025;-35
2022/05/19 07:41:56;;;;;;;7.18;5.90;;;;;;;20.19;88.85;101631.75;5072663;28;20037;-35
2022/05/19 07:44:23;;;;;;;6.88;6.28;;;;;;;20.31;86.46;101635.88;5073456;28;20499;-35
2022/05/19 07:46:48;;;;;;;7.30;6.40;;;;;;;20.48;85.71;101634.75;5072629;28;20167;-35
2022/05/19 07:49:14;;;;;;;9.32;6.75;;;;;;;20.60;87.39;101657.28;5072678;28;20524;-35
2022/05/19 07:51:41;;;;;;;8.52;6.68;;;;;;;20.86;85.04;101659.94;5072615;28;20037;-35
2022/05/19 07:54:18;;;;;;;9.82;7.30;;;;;;;20.99;83.83;101671.16;5073257;28;20052;-35
2022/05/19 07:56:44;;;;;;;7.50;6.82;;;;;;;20.97;84.70;101664.28;5073166;28;20425;-35
2022/05/19 07:59:11;;;;;;;8.45;7.65;;;;;;;21.14;83.05;101662.03;5072600;28;20032;-35
2022/05/19 08:01:38;;;;;;;11.95;8.80;;;;;;;21.33;83.31;101665.81;5072636;28;20042;-35
2022/05/19 08:04:04;;;;;;;9.70;8.75;;;;;;;21.38;82.65;101667.72;5072513;28;20025;-35
2022/05/19 08:06:30;;;;;;;10.32;9.10;;;;;;;21.42;84.28;101671.53;5072930;28;20032;-35
2022/05/19 08:08:58;;;;;;;11.75;9.73;;;;;;;21.56;83.59;101677.22;5072606;28;20020;-35
2022/05/19 08:11:24;;;;;;;13.57;9.93;;;;;;;21.58;81.95;101662.09;5072632;28;20036;-35
2022/05/19 08:16:33;;;;;;;9.60;8.60;;;;;;;21.77;81.71;101653.97;5072234;28;20058;-35
2022/05/19 08:18:59;;;;;;;11.27;8.95;;;;;;;21.92;80.33;101638.44;5072445;28;20131;-35
2022/05/19 08:21:24;;;;;;;9.77;8.70;;;;;;;22.12;78.85;101645.75;5072224;28;20063;-35
2022/05/19 08:23:53;;;;;;;10.55;8.48;;;;;;;22.19;76.79;101643.47;5072313;28;20101;-36
2022/05/19 08:26:19;;;;;;;10.32;8.27;;;;;;;22.25;76.04;101637.63;5072519;28;20115;-35
2022/05/19 08:28:46;;;;;;;9.02;7.68;;;;;;;22.34;76.19;101630.34;5072195;28;20031;-35
2022/05/19 08:31:14;;;;;;;10.43;8.30;;;;;;;22.47;76.05;101639.06;5073180;28;20029;-36
2022/05/19 08:33:42;;;;;;;9.60;8.50;;;;;;;22.63;75.96;101627.56;5072875;28;20094;-36
2022/05/19 08:36:08;;;;;;;9.95;8.85;;;;;;;22.88;75.47;101634.72;5072891;28;20029;-36
2022/05/19 08:38:34;;;;;;;8.07;7.15;;;;;;;22.98;72.12;101638.47;5072244;28;20025;-36
2022/05/19 08:41:05;;;;;;;8.60;7.07;;;;;;;23.11;70.55;101637.75;5072273;28;20024;-36
2022/05/19 08:43:51;;;;;;;10.75;7.22;;;;;;;23.29;71.06;101642.50;5075031;28;20036;-35
2022/05/19 08:46:25;;;;;;;9.73;6.93;;;;;;;23.38;68.24;101634.38;5076269;28;20031;-36
2022/05/19 08:48:55;;;;;;;8.15;6.38;;;;;;;23.48;67.52;101625.94;5075459;28;20043;-36
2022/05/19 08:51:25;;;;;;;7.60;6.75;;;;;;;23.54;66.64;101632.19;5075541;28;20090;-35
2022/05/19 08:53:52;;;;;;;7.97;6.63;;;;;;;23.61;67.40;101640.91;5075806;28;20025;-36
2022/05/19 08:56:25;;;;;;;8.55;6.88;;;;;;;23.63;68.37;101633.16;5075956;28;20067;-36
2022/05/19 08:58:59;;;;;;;7.10;6.32;;;;;;;23.77;66.34;101631.31;5075486;28;20115;-35
2022/05/19 09:01:34;;;;;;;6.38;5.78;;;;;;;23.90;65.54;101626.94;5075955;28;20055;-35
2022/05/19 09:04:14;;;;;;;8.05;5.72;;;;;;;23.92;66.35;101621.13;5075711;28;20035;-35
2022/05/19 09:08:08;;;;;;;10.30;6.60;;;;;;;23.98;65.73;101625.44;5074728;28;20032;-35
2022/05/19 09:10:08;;;;;;;9.93;5.43;;;;;;;24.16;65.68;101619.06;5070527;28;20456;-35
2022/05/19 09:12:37;;;;;;;7.53;5.90;;;;;;;24.23;64.09;101610.34;5075548;28;20051;-35
2022/05/19 09:15:05;;;;;;;7.18;4.95;;;;;;;24.40;61.37;101619.75;5075295;28;20115;-35
2022/05/19 09:17:34;;;;;;;6.80;5.03;;;;;;;24.44;62.48;101600.56;5075464;28;20032;-35
2022/05/19 09:20:05;;;;;;;6.65;4.30;;;;;;;24.78;62.98;101611.22;5075925;28;20373;-35
2022/05/19 09:22:33;;;;;;;6.72;4.43;;;;;;;24.82;62.09;101601.19;5075039;28;20123;-36
2022/05/19 09:25:06;;;;;;;6.18;4.43;;;;;;;24.83;61.42;101600.06;5074922;28;20024;-36
2022/05/19 09:27:35;;;;;;;7.10;4.43;;;;;;;24.72;62.19;101604.16;5075334;28;20108;-36
2022/05/19 09:30:01;;;;;;;7.85;4.57;;;;;;;24.64;59.46;101594.66;5075175;28;20039;-36
2022/05/19 09:32:29;;;;;;;5.78;4.20;;;;;;;24.56;61.95;101608.38;5074738;28;20028;-36
2022/05/19 09:35:17;;;;;;;5.72;4.22;;;;;;;24.51;61.88;101600.19;5074503;28;20033;-36
2022/05/19 09:37:45;;;;;;;5.97;4.10;;;;;;;24.52;63.07;101612.88;5074573;28;20112;-36
2022/05/19 09:40:10;;;;;;;5.70;4.10;;;;;;;24.54;60.14;101610.59;5074755;28;20036;-36
2022/05/19 09:42:53;;;;;;;7.47;4.38;;;;;;;24.62;61.25;101609.91;5075364;28;20119;-36
2022/05/19 09:45:23;;;;;;;7.28;4.18;;;;;;;24.53;59.94;101612.56;5075325;28;20038;-36
2022/05/19 09:47:52;;;;;;;4.57;3.97;;;;;;;24.58;61.55;101622.69;5075110;28;20036;-36
2022/05/19 09:50:27;;;;;;;6.68;4.28;;;;;;;24.42;59.95;101604.78;5074166;28;20071;-36
2022/05/19 09:53:00;;;;;;;7.10;3.72;;;;;;;24.54;61.22;101603.13;5074805;28;20509;-36
2022/05/19 09:55:25;;;;;;;5.78;3.67;;;;;;;24.51;60.50;101597.41;5075225;28;20086;-36
2022/05/19 09:57:51;;;;;;;10.52;4.07;;;;;;;24.61;59.38;101602.75;5074705;28;20036;-36
2022/05/19 10:00:37;;;;;;;6.93;3.70;;;;;;;24.70;61.83;101600.09;5074249;28;20024;-36
2022/05/19 10:03:08;;;;;;;4.47;3.88;;;;;;;24.77;62.54;101584.69;5073903;28;20115;-36
2022/05/19 10:05:43;;;;;;;7.97;3.78;;;;;;;24.90;59.75;101589.41;5074171;28;20024;-36
2022/05/19 10:08:16;;;;;;;9.50;4.40;;;;;;;24.97;58.86;101586.19;5074894;28;20032;-36
2022/05/19 10:11:03;;;;;;;4.75;3.40;;;;;;;25.12;60.33;101574.81;5074045;28;20062;-36
2022/05/19 10:13:37;;;;;;;7.43;3.83;;;;;;;25.14;62.01;101549.63;5073991;28;20024;-36
2022/05/19 10:16:09;;;;;;;5.90;3.60;;;;;;;25.44;59.38;101553.59;5074142;28;20029;-36
2022/05/19 10:18:41;;;;;;;5.70;4.22;;;;;;;25.50;59.51;101540.44;5073887;28;20433;-36
2022/05/19 10:21:06;;;;;;;5.97;4.05;;;;;;;25.61;56.49;101539.06;5074714;28;20044;-36
2022/05/19 10:23:58;;;;;;;5.35;3.65;;;;;;;25.87;58.49;101534.53;5074584;28;20526;-36
2022/05/19 10:26:45;;;;;;;8.38;3.53;;;;;;;25.97;55.63;101524.31;5074057;28;20063;-36
2022/05/19 10:32:36;;;;;;;8.63;3.60;;;;;;;25.82;55.99;101529.13;5073684;28;20043;-35
2022/05/19 10:35:12;;;;;;;5.43;3.38;;;;;;;25.96;56.48;101523.47;5073657;28;20052;-36
2022/05/19 10:37:47;;;;;;;7.97;2.95;;;;;;;26.25;55.16;101522.13;5073204;28;20020;-36
2022/05/19 10:40:18;;;;;;;5.00;3.03;;;;;;;26.56;54.79;101530.44;5073292;28;20025;-36
2022/05/19 10:43:08;;;;;;;3.70;2.50;;;;;;;26.84;54.90;101542.91;5073655;28;20036;-36
2022/05/19 10:45:35;;;;;;;3.90;2.40;;;;;;;26.92;51.60;101533.75;5073428;28;20517;-36
2022/05/19 10:48:03;;;;;;;4.70;2.40;;;;;;;26.99;50.81;101535.22;5073378;28;20043;-37
2022/05/19 10:50:37;;;;;;;4.63;2.10;;;;;;;26.89;51.36;101528.84;5073297;28;20032;-36
2022/05/19 10:53:17;;;;;;;3.97;2.45;;;;;;;26.92;52.80;101524.59;5073654;28;20028;-36
2022/05/19 10:56:01;;;;;;;5.47;2.65;;;;;;;26.81;51.19;101524.09;5073557;28;20074;-36
2022/05/19 10:58:47;;;;;;;5.18;2.50;;;;;;;26.82;51.38;101528.50;5073294;28;20506;-36
2022/05/19 11:01:31;;;;;;;3.95;2.20;;;;;;;26.82;49.83;101530.47;5011234;28;20046;-36
2022/05/19 11:03:57;;;;;;;4.10;2.20;;;;;;;26.73;48.90;101549.06;5011097;28;20038;-36
2022/05/19 11:06:43;;;;;;;6.50;2.45;;;;;;;26.55;50.15;101539.88;5010510;28;20080;-36
2022/05/19 11:09:24;;;;;;;7.25;2.33;;;;;;;26.44;50.57;101536.59;5011545;28;20037;-36
2022/05/19 11:12:07;;;;;;;5.70;2.72;;;;;;;26.31;51.53;101527.22;5011406;28;20478;-35
2022/05/19 11:15:09;;;;;;;6.50;2.00;;;;;;;26.20;52.74;101520.31;5011399;28;20115;-36
2022/05/19 11:17:56;;;;;;;6.43;2.50;;;;;;;26.08;52.97;101518.16;5011097;28;20025;-35
2022/05/19 11:20:27;;;;;;;4.88;2.25;;;;;;;25.90;51.23;101506.19;5011628;28;20050;-35
2022/05/19 11:23:01;;;;;;;5.82;2.08;;;;;;;25.79;53.89;101509.56;5011148;28;20073;-35
2022/05/19 11:28:33;;;;;;;3.88;2.30;;;;;;;25.58;53.81;101537.75;5011326;28;20132;-35
2022/05/19 11:31:05;;;;;;;3.33;2.03;;;;;;;25.47;53.01;101539.13;5010954;28;20128;-35
2022/05/19 11:33:37;;;;;;;6.32;2.15;;;;;;;25.45;53.38;101554.41;5010782;28;20034;-35
2022/05/19 11:36:18;;;;;;;6.78;2.25;;;;;;;25.36;54.03;101557.13;5010983;28;20154;-35
2022/05/19 11:39:00;;;;;;;5.55;2.42;;;;;;;25.25;55.15;101562.09;5053280;28;20033;-35
2022/05/19 11:41:32;;;;;;;13.18;3.13;;;;;;;25.16;55.30;101563.97;5073270;28;20029;-35
2022/05/19 11:44:10;;;;;;;6.57;4.28;;;;;;;25.07;56.59;101576.88;5072978;28;20029;-35
2022/05/19 11:47:15;;;;;;;8.15;4.10;;;;;;;24.97;62.63;101677.50;5073250;28;20119;-35
2022/05/19 11:55:34;;;;;;;7.40;2.15;;;;;;;21.02;80.85;101922.72;5073275;28;20388;-36